Time;durP1;ratioP1;P1;durP2;ratioP2;P2;SDS_P1;SDS_P2;PMS_P1;PMS_P2;Temp;Humidity;BMP_temperature;BMP_pressure;BME280_temperature;BME280_humidity;BME280_pressure;Samples;Min_cycle;Max_cycle;Signal;HPM_P1;HPM_P2
2021/12/14 00:01:17;;;;;;;5.47;1.17;;;7.70;99.90;;;;;;4940964;29;20059;-93
2021/12/14 00:03:47;;;;;;;3.25;1.25;;;7.60;99.90;;;;;;4940838;29;20034;-94
2021/12/14 00:06:15;;;;;;;3.50;1.85;;;7.60;99.90;;;;;;4940955;29;20027;-94
2021/12/14 00:08:55;;;;;;;4.20;1.98;;;7.60;99.90;;;;;;4940745;29;20570;-94
2021/12/14 00:17:07;;;;;;;3.42;1.10;;;7.40;99.90;;;;;;4898775;29;20036;-94
2021/12/14 00:19:33;;;;;;;6.25;1.60;;;7.40;99.90;;;;;;4898446;29;20119;-94
2021/12/14 00:22:06;;;;;;;2.03;0.98;;;7.40;99.90;;;;;;4899604;29;20106;-94
2021/12/14 00:24:36;;;;;;;1.60;1.20;;;7.30;99.90;;;;;;4898700;29;20487;-93
2021/12/14 00:27:05;;;;;;;4.70;1.77;;;7.30;99.90;;;;;;4882536;29;20036;-93
2021/12/14 00:29:37;;;;;;;2.08;1.40;;;7.30;99.90;;;;;;4898268;29;20033;-95
2021/12/14 00:32:13;;;;;;;4.40;1.40;;;7.30;99.90;;;;;;4883035;29;20056;-94
2021/12/14 00:34:42;;;;;;;2.35;1.40;;;7.30;99.90;;;;;;4899551;29;20388;-96
2021/12/14 00:37:17;;;;;;;4.40;1.60;;;7.30;99.90;;;;;;4900202;29;20033;-94
2021/12/14 00:39:46;;;;;;;2.95;1.33;;;7.30;99.90;;;;;;4899883;29;20036;-94
2021/12/14 00:42:13;;;;;;;3.85;1.52;;;7.30;99.90;;;;;;4885474;29;20047;-94
2021/12/14 00:44:39;;;;;;;4.30;2.05;;;7.30;99.90;;;;;;4909342;29;20072;-95
2021/12/14 00:47:06;;;;;;;4.20;1.80;;;7.30;99.90;;;;;;4899916;29;20024;-94
2021/12/14 00:49:32;;;;;;;3.35;1.70;;;7.40;99.90;;;;;;4899052;29;20563;-94
2021/12/14 00:51:59;;;;;;;5.50;2.10;;;7.30;99.90;;;;;;4937769;29;20130;-93
2021/12/14 00:54:25;;;;;;;4.82;2.70;;;7.30;99.90;;;;;;4921713;29;20031;-94
2021/12/14 00:56:52;;;;;;;5.22;2.50;;;7.30;99.90;;;;;;4921174;29;20524;-94
2021/12/14 00:59:20;;;;;;;7.57;2.45;;;7.30;99.90;;;;;;4921857;29;20465;-93
2021/12/14 01:01:54;;;;;;;5.22;2.00;;;7.20;99.90;;;;;;4923017;29;20039;-94
2021/12/14 01:04:35;;;;;;;9.50;3.42;;;7.20;99.90;;;;;;4923518;29;20027;-94
2021/12/14 01:07:02;;;;;;;12.90;5.82;;;7.20;99.90;;;;;;4928401;29;20047;-94
2021/12/14 01:09:32;;;;;;;4.80;3.00;;;7.20;99.90;;;;;;4945081;29;20023;-94
2021/12/14 01:12:06;;;;;;;10.73;5.22;;;7.20;99.90;;;;;;4927783;29;20087;-94
2021/12/14 01:14:45;;;;;;;8.45;4.07;;;7.20;99.90;;;;;;4923564;29;20043;-93
2021/12/14 01:17:27;;;;;;;10.18;3.85;;;7.20;99.90;;;;;;4922664;29;20067;-94
2021/12/14 01:19:59;;;;;;;8.30;4.35;;;7.20;99.90;;;;;;4923288;29;20035;-93
2021/12/14 01:22:41;;;;;;;10.00;4.32;;;7.20;99.90;;;;;;4922048;29;20119;-93
2021/12/14 01:25:22;;;;;;;7.45;3.63;;;7.20;99.90;;;;;;4937554;29;20043;-93
2021/12/14 01:27:52;;;;;;;;;;;7.20;99.90;;;;;;4922897;29;20102;-93
2021/12/14 01:30:24;;;;;;;8.70;4.07;;;7.20;99.90;;;;;;4939318;29;19922;-92
2021/12/14 01:32:52;;;;;;;8.65;3.90;;;7.20;99.90;;;;;;4922985;29;20038;-93
2021/12/14 01:35:24;;;;;;;6.75;3.75;;;7.20;99.90;;;;;;4923395;29;20032;-92
2021/12/14 01:38:01;;;;;;;8.80;4.70;;;7.20;99.90;;;;;;4922359;29;20119;-93
2021/12/14 01:43:20;;;;;;;8.45;4.43;;;7.20;99.90;;;;;;4938110;29;20075;-93
2021/12/14 01:45:46;;;;;;;12.32;4.10;;;7.10;99.90;;;;;;4922001;29;20101;-92
2021/12/14 01:48:12;;;;;;;7.50;3.58;;;7.20;99.90;;;;;;4921903;29;20023;-92
2021/12/14 01:50:48;;;;;;;9.05;4.22;;;7.20;99.90;;;;;;4936192;29;20379;-93
2021/12/14 01:53:16;;;;;;;8.32;4.63;;;7.20;99.90;;;;;;4938285;29;20024;-92
2021/12/14 01:55:50;;;;;;;12.52;4.45;;;7.20;99.90;;;;;;4937685;29;20122;-92
2021/12/14 01:58:17;;;;;;;8.38;3.42;;;7.20;99.90;;;;;;4936891;29;20397;-93
2021/12/14 02:00:55;;;;;;;8.80;3.60;;;7.20;99.90;;;;;;4937132;29;20024;-94
2021/12/14 02:03:29;;;;;;;6.88;3.30;;;7.10;99.90;;;;;;4936983;29;20240;-93
2021/12/14 02:05:55;;;;;;;6.97;3.38;;;7.20;99.90;;;;;;4936687;29;20028;-93
2021/12/14 02:08:32;;;;;;;6.22;3.40;;;7.20;99.90;;;;;;4936745;29;20039;-93
2021/12/14 02:11:01;;;;;;;9.57;3.17;;;7.20;99.90;;;;;;4936774;29;20047;-94
2021/12/14 02:13:33;;;;;;;5.75;2.70;;;7.20;99.90;;;;;;4936600;29;20034;-93
2021/12/14 02:16:00;;;;;;;7.32;2.58;;;7.20;99.90;;;;;;4936627;29;20064;-93
2021/12/14 02:18:29;;;;;;;8.85;2.80;;;7.20;99.90;;;;;;4936605;29;20028;-92
2021/12/14 02:21:10;;;;;;;5.70;2.50;;;7.20;99.90;;;;;;4936168;29;20035;-93
2021/12/14 02:23:40;;;;;;;4.53;2.50;;;7.20;99.90;;;;;;4937394;29;20556;-93
2021/12/14 02:26:10;;;;;;;3.17;2.35;;;7.20;99.90;;;;;;4936644;29;20036;-93
2021/12/14 02:28:37;;;;;;;6.70;2.65;;;7.20;99.90;;;;;;4937109;29;20086;-92
2021/12/14 02:31:05;;;;;;;3.17;2.10;;;7.20;99.90;;;;;;4936942;29;20059;-95
2021/12/14 02:33:35;;;;;;;7.85;2.30;;;7.10;99.90;;;;;;4941833;29;20024;-95
2021/12/14 02:36:07;;;;;;;6.25;2.88;;;7.20;99.90;;;;;;4936903;29;20066;-95
2021/12/14 02:38:34;;;;;;;7.80;3.05;;;7.10;99.90;;;;;;4936019;29;20035;-95
2021/12/14 02:41:06;;;;;;;5.18;2.90;;;7.20;99.90;;;;;;4935403;29;20032;-95
2021/12/14 02:43:40;;;;;;;7.25;3.10;;;7.10;99.90;;;;;;4935446;29;20036;-94
2021/12/14 02:46:14;;;;;;;4.95;2.90;;;7.20;99.90;;;;;;4935642;29;20027;-93
2021/12/14 02:48:43;;;;;;;7.13;3.55;;;7.20;99.90;;;;;;4937993;28;20055;-94
2021/12/14 02:51:23;;;;;;;6.90;3.83;;;7.20;99.90;;;;;;4938277;29;20068;-94
2021/12/14 02:53:53;;;;;;;12.50;4.45;;;7.20;99.90;;;;;;4938622;29;20123;-93
2021/12/14 02:56:24;;;;;;;5.68;3.65;;;7.20;99.90;;;;;;4940094;29;20039;-93
2021/12/14 02:58:54;;;;;;;7.43;4.25;;;7.20;99.90;;;;;;4942221;29;20478;-93
2021/12/14 03:01:20;;;;;;;10.60;4.47;;;7.20;99.90;;;;;;4942138;29;20031;-95
2021/12/14 03:03:46;;;;;;;8.57;4.63;;;7.10;99.90;;;;;;4942028;29;20066;-93
2021/12/14 03:06:19;;;;;;;9.73;4.65;;;7.20;99.90;;;;;;4941872;29;20117;-95
2021/12/14 03:08:56;;;;;;;10.45;4.90;;;7.20;99.90;;;;;;4942150;29;20027;-95
2021/12/14 03:11:23;;;;;;;9.07;4.63;;;7.20;99.90;;;;;;4942474;29;20037;-92
2021/12/14 03:13:52;;;;;;;9.63;4.13;;;7.20;99.90;;;;;;4942095;29;20026;-94
2021/12/14 03:16:24;;;;;;;10.30;4.45;;;7.20;99.90;;;;;;4942199;29;20378;-94
2021/12/14 03:18:52;;;;;;;10.05;5.55;;;7.20;99.90;;;;;;4942199;29;20024;-95
2021/12/14 03:21:30;;;;;;;9.30;4.57;;;7.30;99.90;;;;;;4941865;29;20031;-94
2021/12/14 03:24:09;;;;;;;10.93;4.90;;;7.20;99.90;;;;;;4944204;29;20035;-93
2021/12/14 03:26:38;;;;;;;10.93;4.90;;;7.20;99.90;;;;;;4943224;29;20054;-94
2021/12/14 03:29:08;;;;;;;9.98;4.88;;;7.20;99.90;;;;;;4944127;29;20024;-94
2021/12/14 03:31:41;;;;;;;8.15;4.57;;;7.30;99.90;;;;;;4941789;29;20045;-95
2021/12/14 03:34:11;;;;;;;12.73;5.43;;;7.20;99.90;;;;;;4941908;29;20614;-94
2021/12/14 03:36:45;;;;;;;13.18;5.70;;;7.20;99.90;;;;;;4942009;29;20027;-94
2021/12/14 03:39:28;;;;;;;11.20;5.63;;;7.20;99.90;;;;;;4941985;29;20256;-94
2021/12/14 03:42:04;;;;;;;14.65;6.65;;;7.20;99.90;;;;;;4959481;29;20397;-94
2021/12/14 03:44:36;;;;;;;13.52;6.90;;;7.20;99.90;;;;;;4941918;29;20035;-94
2021/12/14 03:47:08;;;;;;;13.30;6.90;;;7.20;99.90;;;;;;4941743;29;20031;-95
2021/12/14 03:49:38;;;;;;;13.65;6.70;;;7.20;99.90;;;;;;4941249;29;20051;-94
2021/12/14 03:52:13;;;;;;;14.00;6.22;;;7.20;99.90;;;;;;4941258;29;20125;-94
2021/12/14 03:54:39;;;;;;;17.83;6.78;;;7.10;99.90;;;;;;4941181;29;20034;-93
2021/12/14 03:57:06;;;;;;;18.08;7.35;;;7.10;99.90;;;;;;4941083;29;20031;-93
2021/12/14 03:59:32;;;;;;;15.85;6.57;;;7.10;99.90;;;;;;4941182;29;20039;-94
2021/12/14 04:02:01;;;;;;;13.88;6.82;;;7.10;99.90;;;;;;4940992;29;20031;-94
2021/12/14 04:04:50;;;;;;;19.13;7.40;;;7.10;99.90;;;;;;4941120;29;20090;-93
2021/12/14 04:07:16;;;;;;;15.75;6.75;;;7.10;99.90;;;;;;4940818;29;20032;-95
2021/12/14 04:09:46;;;;;;;14.45;7.28;;;7.10;99.90;;;;;;4941440;29;20031;-94
2021/12/14 04:12:17;;;;;;;15.93;6.65;;;7.00;99.90;;;;;;4941233;29;20051;-94
2021/12/14 04:14:48;;;;;;;13.27;6.32;;;7.00;99.90;;;;;;4941511;29;20086;-94
2021/12/14 04:17:14;;;;;;;9.65;4.82;;;7.00;99.90;;;;;;4948602;29;20055;-92
2021/12/14 04:19:41;;;;;;;20.70;7.85;;;7.00;99.90;;;;;;4948882;29;20023;-93
2021/12/14 04:22:13;;;;;;;18.70;7.93;;;7.00;99.90;;;;;;4946097;29;20042;-94
2021/12/14 04:24:41;;;;;;;16.90;6.85;;;7.00;99.90;;;;;;4942556;29;20563;-93
2021/12/14 04:27:14;;;;;;;16.48;6.85;;;7.00;99.90;;;;;;4941651;29;20035;-94
2021/12/14 04:29:40;;;;;;;11.43;5.38;;;7.00;99.90;;;;;;4941271;29;20035;-94
2021/12/14 04:32:09;;;;;;;19.05;8.05;;;7.00;99.90;;;;;;4943074;29;20035;-93
2021/12/14 04:34:35;;;;;;;19.98;8.50;;;7.00;99.90;;;;;;4940928;29;20047;-96
2021/12/14 04:37:03;;;;;;;19.17;7.60;;;7.00;99.90;;;;;;4940598;29;20031;-95
2021/12/14 04:39:38;;;;;;;18.60;7.35;;;7.00;99.90;;;;;;4941125;29;20035;-95
2021/12/14 04:53:22;;;;;;;23.92;9.75;;;7.00;99.90;;;;;;4957939;29;20065;-94
2021/12/14 04:55:52;;;;;;;22.90;9.07;;;6.90;99.90;;;;;;4940899;29;20130;-94
2021/12/14 04:58:32;;;;;;;25.52;10.30;;;6.90;99.90;;;;;;4940483;29;20035;-93
2021/12/14 05:01:00;;;;;;;23.83;8.27;;;6.90;99.90;;;;;;4941882;29;20031;-94
2021/12/14 05:03:37;;;;;;;28.58;8.60;;;7.00;99.90;;;;;;4941841;29;20074;-95
2021/12/14 05:06:13;;;;;;;27.33;9.70;;;6.90;99.90;;;;;;4942699;29;20034;-95
2021/12/14 05:11:11;;;;;;;29.33;10.55;;;7.00;99.90;;;;;;4956996;29;20047;-93
2021/12/14 05:13:46;;;;;;;36.25;11.43;;;7.00;99.90;;;;;;4939813;29;20366;-94
2021/12/14 05:16:26;;;;;;;33.28;10.85;;;7.00;99.90;;;;;;4939494;29;20122;-93
2021/12/14 05:18:58;;;;;;;29.13;10.45;;;7.00;99.90;;;;;;4938810;29;20094;-94
2021/12/14 05:21:30;;;;;;;29.20;9.45;;;7.00;99.90;;;;;;4939395;29;20027;-94
2021/12/14 05:23:57;;;;;;;24.45;9.27;;;7.00;99.90;;;;;;4939084;29;20477;-95
2021/12/14 05:26:23;;;;;;;27.33;10.13;;;7.00;99.90;;;;;;4939150;29;20107;-94
2021/12/14 05:28:49;;;;;;;23.52;9.30;;;7.00;99.90;;;;;;4939574;29;20023;-94
2021/12/14 05:31:15;;;;;;;28.38;10.23;;;7.00;99.90;;;;;;4938882;29;20046;-95
2021/12/14 05:33:42;;;;;;;25.70;8.65;;;7.00;99.90;;;;;;4939402;29;20046;-92
2021/12/14 05:36:13;;;;;;;28.48;9.85;;;7.00;99.90;;;;;;4939074;29;20028;-93
2021/12/14 05:43:05;;;;;;;28.17;10.65;;;7.10;99.90;;;;;;4956224;29;20019;-95
2021/12/14 05:43:58;;;;;;;27.95;9.18;;;7.00;99.90;;;;;;4955392;29;20020;-93
2021/12/14 05:46:24;;;;;;;31.30;10.35;;;7.10;99.90;;;;;;4938944;29;20114;-93
2021/12/14 05:49:06;;;;;;;22.92;8.27;;;7.10;99.90;;;;;;4938837;29;20139;-91
2021/12/14 05:51:33;;;;;;;35.67;11.20;;;7.10;99.90;;;;;;4938833;29;20042;-93
2021/12/14 05:54:00;;;;;;;28.10;9.50;;;7.10;99.90;;;;;;4938870;29;20070;-94
2021/12/14 05:56:29;;;;;;;35.28;10.82;;;7.10;99.90;;;;;;4938857;29;20130;-95
2021/12/14 05:58:56;;;;;;;34.55;9.95;;;7.10;99.90;;;;;;4938468;29;20549;-95
2021/12/14 06:01:27;;;;;;;23.45;8.93;;;7.10;99.90;;;;;;4938842;29;20042;-95
2021/12/14 06:04:05;;;;;;;35.67;10.02;;;7.10;99.90;;;;;;4938856;29;20038;-94
2021/12/14 06:06:35;;;;;;;34.63;11.20;;;7.10;99.90;;;;;;4939335;29;20039;-94
2021/12/14 06:09:23;;;;;;;30.00;10.35;;;7.10;99.90;;;;;;4945282;29;20027;-94
2021/12/14 06:11:54;;;;;;;30.67;11.45;;;7.10;99.90;;;;;;4943553;29;20490;-93
2021/12/14 06:14:26;;;;;;;34.95;11.77;;;7.10;99.90;;;;;;4938556;29;20035;-94
2021/12/14 06:17:01;;;;;;;42.95;14.27;;;7.10;99.90;;;;;;4938579;29;20042;-95
2021/12/14 06:19:34;;;;;;;37.15;12.50;;;7.10;99.90;;;;;;4938562;29;20019;-94
2021/12/14 06:22:12;;;;;;;46.58;14.77;;;7.10;99.90;;;;;;4938734;29;20055;-94
2021/12/14 06:24:47;;;;;;;35.55;12.75;;;7.10;99.90;;;;;;4939005;29;20647;-95
2021/12/14 06:27:16;;;;;;;38.70;12.48;;;7.10;99.90;;;;;;4940146;29;20041;-93
2021/12/14 06:29:50;;;;;;;34.50;12.75;;;7.10;99.90;;;;;;4939697;29;20113;-95
2021/12/14 06:32:44;;;;;;;31.70;11.18;;;7.10;99.90;;;;;;4941302;29;20515;-94
2021/12/14 06:35:20;;;;;;;34.03;11.35;;;7.10;99.90;;;;;;4917565;29;20095;-94
2021/12/14 06:40:34;;;;;;;26.17;9.00;;;7.10;99.90;;;;;;4962893;29;20027;-93
2021/12/14 06:43:03;;;;;;;;;;;7.10;99.90;;;;;;4955366;29;20024;-94
2021/12/14 06:45:33;;;;;;;25.05;9.35;;;7.10;99.90;;;;;;4941867;29;19913;-94
2021/12/14 06:48:22;;;;;;;29.50;10.98;;;7.10;99.90;;;;;;4937149;29;20045;-93
2021/12/14 06:50:52;;;;;;;36.70;13.05;;;7.10;99.90;;;;;;4922270;28;20072;-96
2021/12/14 06:53:20;;;;;;;43.83;18.05;;;7.10;99.90;;;;;;4928590;29;20094;-94
2021/12/14 06:55:54;;;;;;;39.13;15.85;;;7.10;99.90;;;;;;4926443;29;20024;-93
2021/12/14 06:58:35;;;;;;;34.88;12.13;;;7.10;99.90;;;;;;4925838;29;20024;-93
2021/12/14 07:01:17;;;;;;;32.08;12.65;;;7.10;99.90;;;;;;4930303;29;20103;-93
2021/12/14 07:03:54;;;;;;;33.85;12.43;;;7.10;99.90;;;;;;4928533;29;20067;-94
2021/12/14 07:06:39;;;;;;;29.63;10.65;;;7.10;99.90;;;;;;4933016;29;20020;-94
2021/12/14 07:09:13;;;;;;;33.72;13.35;;;7.20;99.90;;;;;;4931976;29;20044;-93
2021/12/14 07:11:41;;;;;;;28.92;11.05;;;7.20;99.90;;;;;;4927724;29;20094;-94
2021/12/14 07:14:37;;;;;;;23.92;9.77;;;7.20;99.90;;;;;;4927958;29;20023;-93
2021/12/14 07:17:09;;;;;;;24.10;9.43;;;7.20;99.90;;;;;;4930676;29;20034;-94
2021/12/14 07:19:39;;;;;;;22.92;10.30;;;7.20;99.90;;;;;;4927229;29;20035;-94
2021/12/14 07:22:06;;;;;;;23.33;9.05;;;7.20;99.90;;;;;;4927851;29;20066;-94
2021/12/14 07:24:36;;;;;;;25.67;10.82;;;7.20;99.90;;;;;;4929599;29;20062;-93
2021/12/14 07:27:19;;;;;;;44.50;15.60;;;7.20;99.90;;;;;;4927700;29;20027;-94
2021/12/14 07:29:46;;;;;;;41.25;14.45;;;7.20;99.90;;;;;;4928745;29;20035;-93
2021/12/14 07:32:12;;;;;;;25.75;9.82;;;7.20;99.90;;;;;;4928330;29;20118;-95
2021/12/14 07:34:38;;;;;;;19.10;8.10;;;7.20;99.90;;;;;;4939462;29;20163;-95
2021/12/14 07:37:04;;;;;;;18.98;7.07;;;7.20;99.90;;;;;;4925973;29;20035;-95
2021/12/14 07:39:30;;;;;;;17.70;7.43;;;7.20;99.90;;;;;;4926293;29;20023;-94
2021/12/14 07:41:59;;;;;;;19.88;8.73;;;7.10;99.90;;;;;;4944091;29;20541;-94
2021/12/14 07:44:37;;;;;;;29.42;12.77;;;7.20;99.90;;;;;;4932223;29;20058;-93
2021/12/14 07:47:29;;;;;;;35.60;14.43;;;7.10;99.90;;;;;;4936366;29;20066;-92
2021/12/14 07:49:56;;;;;;;33.97;14.27;;;7.20;99.90;;;;;;4937619;29;20039;-93
2021/12/14 07:52:28;;;;;;;33.15;13.68;;;7.10;99.90;;;;;;4941508;29;20125;-94
2021/12/14 07:55:17;;;;;;;34.78;14.50;;;7.10;99.90;;;;;;4941587;29;20058;-93
2021/12/14 07:57:47;;;;;;;33.45;13.77;;;7.10;99.90;;;;;;4930389;29;20039;-93
2021/12/14 08:00:28;;;;;;;23.55;9.10;;;7.10;99.90;;;;;;4928771;28;20027;-96
2021/12/14 08:02:56;;;;;;;22.65;8.98;;;7.10;99.90;;;;;;4940532;29;20031;-94
2021/12/14 08:05:33;;;;;;;22.17;10.52;;;7.10;99.90;;;;;;4933523;29;20091;-95
2021/12/14 08:08:09;;;;;;;22.65;8.00;;;7.10;99.90;;;;;;4930486;29;20024;-95
2021/12/14 08:10:40;;;;;;;18.85;8.40;;;7.10;99.90;;;;;;4930791;29;20047;-94
2021/12/14 08:13:09;;;;;;;;;;;7.10;99.90;;;;;;4955365;28;20035;-95
2021/12/14 08:15:43;;;;;;;18.30;7.55;;;7.10;99.90;;;;;;4952265;28;19910;-95
2021/12/14 08:18:14;;;;;;;20.27;7.53;;;7.10;99.90;;;;;;4941062;29;20023;-95
2021/12/14 08:20:57;;;;;;;;;;;7.10;99.90;;;;;;4945451;29;20059;-96
2021/12/14 08:28:17;;;;;;;20.80;8.98;;;7.20;99.90;;;;;;4918824;29;20031;-94
2021/12/14 08:30:55;;;;;;;24.08;10.00;;;7.20;99.90;;;;;;4941538;29;20038;-95
2021/12/14 08:33:24;;;;;;;17.95;7.43;;;7.20;99.90;;;;;;4945366;29;20039;-94
2021/12/14 08:35:50;;;;;;;16.15;6.57;;;7.20;99.90;;;;;;4944775;29;20279;-94
2021/12/14 08:38:18;;;;;;;19.98;8.23;;;7.20;99.90;;;;;;4946093;29;20075;-94
2021/12/14 08:40:50;;;;;;;16.08;7.78;;;7.20;99.90;;;;;;4940199;29;20031;-94
2021/12/14 08:43:30;;;;;;;18.08;8.00;;;7.20;99.90;;;;;;4939365;29;20043;-94
2021/12/14 08:46:10;;;;;;;16.77;7.15;;;7.30;99.90;;;;;;4944792;28;20033;-95
2021/12/14 08:48:38;;;;;;;16.50;7.70;;;7.30;99.90;;;;;;4948390;28;20078;-93
2021/12/14 08:51:13;;;;;;;16.10;7.57;;;7.30;99.90;;;;;;4948390;28;20055;-94
2021/12/14 08:53:49;;;;;;;18.65;7.70;;;7.30;99.90;;;;;;4950835;28;20022;-92
2021/12/14 08:56:16;;;;;;;16.05;7.50;;;7.30;99.90;;;;;;4942874;28;20027;-92
2021/12/14 09:01:27;;;;;;;13.55;6.43;;;7.30;99.90;;;;;;5035575;23;20387;-93
2021/12/14 09:04:01;;;;;;;21.20;7.72;;;7.30;99.90;;;;;;4912879;29;20649;-93
2021/12/14 09:06:33;;;;;;;12.63;5.80;;;7.40;99.90;;;;;;4923810;29;20031;-93
2021/12/14 09:09:09;;;;;;;11.60;5.68;;;7.40;99.90;;;;;;4913094;29;20471;-95
2021/12/14 09:11:38;;;;;;;9.00;4.65;;;7.40;99.90;;;;;;4902262;29;20036;-93
2021/12/14 09:14:06;;;;;;;9.55;4.95;;;7.40;99.90;;;;;;4904057;29;20036;-95
2021/12/14 09:16:32;;;;;;;13.00;6.03;;;7.40;99.90;;;;;;4910789;29;20042;-93
2021/12/14 09:19:10;;;;;;;8.80;4.97;;;7.50;99.90;;;;;;4921802;29;20019;-94
2021/12/14 09:21:42;;;;;;;11.23;5.65;;;7.50;99.90;;;;;;4904696;29;20028;-95
2021/12/14 09:24:15;;;;;;;11.52;6.05;;;7.50;99.90;;;;;;4912297;23;20040;-93
2021/12/14 09:26:46;;;;;;;9.90;5.38;;;7.60;99.90;;;;;;4908147;29;20044;-93
2021/12/14 09:29:17;;;;;;;14.75;5.85;;;7.60;99.90;;;;;;4903259;29;20123;-95
2021/12/14 09:31:47;;;;;;;13.30;5.88;;;7.60;99.90;;;;;;4902434;29;20048;-93
2021/12/14 09:34:15;;;;;;;10.65;5.28;;;7.60;99.90;;;;;;4902893;29;20028;-94
2021/12/14 09:36:42;;;;;;;9.27;5.07;;;7.60;99.90;;;;;;4902255;29;20036;-94
2021/12/14 09:39:12;;;;;;;11.30;5.28;;;7.70;99.90;;;;;;4902272;29;20044;-94
2021/12/14 09:41:41;;;;;;;10.57;5.20;;;7.80;99.90;;;;;;4902809;29;20099;-93
2021/12/14 09:44:10;;;;;;;12.60;5.07;;;7.80;99.90;;;;;;4927537;29;20085;-94
2021/12/14 09:46:40;;;;;;;11.25;4.97;;;7.80;99.90;;;;;;4908353;29;20039;-93
2021/12/14 09:49:08;;;;;;;13.90;5.30;;;7.90;99.90;;;;;;4902530;29;20104;-95
2021/12/14 09:51:44;;;;;;;10.88;5.47;;;8.00;99.90;;;;;;4905626;29;20044;-95
2021/12/14 09:54:14;;;;;;;11.70;6.43;;;8.00;99.90;;;;;;4906918;29;20080;-95
2021/12/14 09:56:44;;;;;;;10.70;4.95;;;8.20;99.90;;;;;;4905313;29;20059;-94
2021/12/14 09:59:10;;;;;;;;;;;8.40;99.90;;;;;;4904426;29;20028;-93
2021/12/14 10:02:00;;;;;;;11.30;5.15;;;8.60;99.90;;;;;;4903016;29;19931;-92
2021/12/14 10:04:30;;;;;;;11.93;4.40;;;8.70;99.90;;;;;;4901296;29;20040;-93
2021/12/14 10:06:58;;;;;;;7.35;4.30;;;9.00;99.90;;;;;;4916717;29;20405;-92
2021/12/14 10:09:27;;;;;;;10.07;4.18;;;9.30;99.90;;;;;;4920944;29;20024;-91
2021/12/14 10:14:30;;;;;;;8.55;4.00;;;10.00;99.90;;;;;;4935471;29;20035;-94
2021/12/14 10:16:56;;;;;;;8.35;4.13;;;10.10;99.90;;;;;;4918643;29;20054;-94
2021/12/14 10:19:26;;;;;;;9.52;4.60;;;10.20;99.90;;;;;;4918342;29;20032;-94
2021/12/14 10:22:01;;;;;;;6.15;4.18;;;10.10;99.90;;;;;;4918745;29;20039;-93
2021/12/14 10:24:28;;;;;;;5.85;3.67;;;10.00;99.90;;;;;;4923405;29;20135;-94
2021/12/14 10:27:01;;;;;;;5.43;3.50;;;9.90;99.90;;;;;;4939475;29;20035;-93
2021/12/14 10:29:30;;;;;;;7.03;3.97;;;9.80;99.90;;;;;;4939728;29;20210;-93
2021/12/14 10:32:02;;;;;;;7.25;4.10;;;9.70;99.90;;;;;;4940550;29;20101;-93
2021/12/14 10:34:33;;;;;;;8.00;3.97;;;9.70;99.90;;;;;;4940675;29;20027;-94
2021/12/14 10:37:14;;;;;;;5.88;3.50;;;9.70;99.90;;;;;;4941095;29;20087;-95
2021/12/14 10:45:14;;;;;;;7.45;3.92;;;10.30;99.90;;;;;;4956652;29;20063;-94
2021/12/14 10:47:41;;;;;;;6.30;2.90;;;10.60;99.90;;;;;;4938911;29;20027;-92
2021/12/14 10:50:12;;;;;;;3.97;2.70;;;10.70;99.90;;;;;;4938868;29;20019;-93
2021/12/14 10:52:42;;;;;;;7.85;2.95;;;10.70;99.90;;;;;;4938460;29;20039;-93
2021/12/14 10:55:12;;;;;;;8.57;2.85;;;10.60;99.90;;;;;;4938742;29;20035;-93
2021/12/14 10:57:39;;;;;;;6.43;3.20;;;10.50;99.90;;;;;;4938618;29;20118;-94
2021/12/14 11:00:47;;;;;;;6.25;3.20;;;10.40;99.90;;;;;;4938440;29;20020;-94
2021/12/14 11:03:17;;;;;;;5.15;3.42;;;10.20;99.90;;;;;;4938050;29;20039;-93
2021/12/14 11:05:47;;;;;;;4.70;2.80;;;10.10;99.90;;;;;;4938338;29;20026;-93
2021/12/14 11:08:33;;;;;;;3.92;2.80;;;9.90;99.90;;;;;;4938121;29;20118;-94
2021/12/14 11:11:01;;;;;;;4.70;3.03;;;9.80;99.90;;;;;;4938225;29;20506;-93
2021/12/14 11:13:40;;;;;;;4.10;2.80;;;9.80;99.90;;;;;;4938128;29;20122;-94
2021/12/14 11:16:14;;;;;;;4.55;2.67;;;9.70;99.90;;;;;;4938556;29;20023;-93
2021/12/14 11:18:42;;;;;;;5.25;3.05;;;9.70;99.90;;;;;;4942301;29;20031;-91
2021/12/14 11:21:13;;;;;;;3.80;2.72;;;9.60;99.90;;;;;;4941791;29;20065;-94
2021/12/14 11:23:44;;;;;;;4.78;3.03;;;9.60;99.90;;;;;;4942154;29;20031;-94
2021/12/14 11:26:22;;;;;;;5.13;2.92;;;9.60;99.90;;;;;;4944845;29;20079;-93
2021/12/14 11:28:49;;;;;;;4.43;2.90;;;9.60;99.90;;;;;;4946206;29;20024;-94
2021/12/14 11:31:43;;;;;;;3.40;2.60;;;9.50;99.90;;;;;;4948889;29;20477;-92
2021/12/14 11:34:15;;;;;;;5.88;2.40;;;9.60;99.90;;;;;;4942688;29;20035;-94
2021/12/14 11:36:41;;;;;;;3.45;2.50;;;9.50;99.90;;;;;;4942007;29;20023;-93
2021/12/14 11:39:12;;;;;;;5.43;2.30;;;9.50;99.90;;;;;;4942377;29;20119;-93
2021/12/14 11:41:49;;;;;;;4.07;2.15;;;9.50;99.90;;;;;;4941503;29;20027;-92
2021/12/14 11:44:21;;;;;;;3.22;2.15;;;9.50;99.90;;;;;;4942170;29;20199;-94
2021/12/14 11:47:01;;;;;;;3.45;2.17;;;9.50;99.90;;;;;;4942791;29;20059;-93
2021/12/14 11:49:48;;;;;;;6.05;2.40;;;9.40;99.90;;;;;;4941666;29;20031;-93
2021/12/14 11:52:51;;;;;;;3.92;2.63;;;9.40;99.90;;;;;;4941373;29;20043;-93
2021/12/14 11:55:28;;;;;;;4.30;2.60;;;9.40;99.90;;;;;;4941360;29;20058;-93
2021/12/14 11:58:30;;;;;;;3.65;2.08;;;9.40;99.90;;;;;;4944641;29;20031;-93
2021/12/14 12:01:14;;;;;;;2.38;1.60;;;9.40;99.90;;;;;;4941063;29;20023;-92
2021/12/14 12:03:43;;;;;;;3.00;1.77;;;9.40;99.90;;;;;;4945053;29;20032;-92
2021/12/14 12:06:14;;;;;;;1.23;1.10;;;9.40;99.90;;;;;;4946028;29;20457;-92
2021/12/14 12:11:39;;;;;;;1.42;0.90;;;9.50;99.90;;;;;;4962706;29;20502;-94
2021/12/14 12:14:25;;;;;;;2.22;1.10;;;9.40;99.90;;;;;;4943306;29;20098;-93
2021/12/14 12:16:53;;;;;;;4.22;1.00;;;9.50;99.90;;;;;;4940647;29;20063;-92
2021/12/14 12:19:28;;;;;;;1.92;1.45;;;9.40;99.90;;;;;;4940957;29;20098;-94
2021/12/14 12:21:54;;;;;;;3.72;1.50;;;9.40;99.90;;;;;;4940947;29;20032;-91
2021/12/14 12:24:34;;;;;;;2.35;1.38;;;9.50;99.90;;;;;;4940626;28;20078;-94
2021/12/14 12:27:29;;;;;;;1.70;1.10;;;9.50;99.90;;;;;;4940505;28;20039;-93
2021/12/14 12:30:26;;;;;;;1.40;1.00;;;9.60;99.90;;;;;;4940520;29;20035;-95
2021/12/14 12:32:53;;;;;;;1.30;0.80;;;9.50;99.90;;;;;;4940470;29;20468;-93
2021/12/14 12:35:33;;;;;;;1.35;1.15;;;9.50;99.90;;;;;;4940432;29;20023;-93
2021/12/14 12:38:14;;;;;;;3.08;1.17;;;9.60;99.90;;;;;;4940601;29;20173;-95
2021/12/14 12:40:48;;;;;;;2.20;1.60;;;9.60;99.90;;;;;;4941093;29;20028;-93
2021/12/14 12:43:23;;;;;;;2.90;1.10;;;9.70;99.90;;;;;;4941949;29;20023;-93
2021/12/14 12:46:07;;;;;;;2.90;1.90;;;9.70;99.90;;;;;;4943516;29;20121;-92
2021/12/14 12:48:43;;;;;;;1.35;1.10;;;9.70;99.90;;;;;;4942887;29;20031;-93
2021/12/14 12:51:10;;;;;;;3.38;1.70;;;9.80;99.90;;;;;;4941996;29;20031;-92
2021/12/14 12:53:36;;;;;;;3.35;1.60;;;9.80;99.90;;;;;;4940389;29;20556;-93
2021/12/14 12:56:09;;;;;;;3.97;2.03;;;9.80;99.90;;;;;;4940712;29;20121;-94
2021/12/14 12:58:40;;;;;;;2.65;1.73;;;9.80;99.90;;;;;;4940578;29;20043;-92
2021/12/14 13:01:06;;;;;;;3.58;2.05;;;9.80;99.90;;;;;;4940827;29;20075;-93
2021/12/14 13:03:40;;;;;;;3.08;2.00;;;9.90;99.90;;;;;;4941165;29;20122;-93
2021/12/14 13:06:13;;;;;;;3.47;1.80;;;9.90;99.90;;;;;;4940426;29;20544;-95
2021/12/14 13:08:40;;;;;;;2.70;2.00;;;10.00;99.90;;;;;;4940708;29;20058;-93
2021/12/14 13:11:19;;;;;;;6.53;1.83;;;10.00;99.90;;;;;;4940261;29;20035;-94
2021/12/14 13:13:53;;;;;;;2.20;1.35;;;10.10;99.90;;;;;;4940026;29;20477;-93
2021/12/14 13:16:29;;;;;;;2.10;1.83;;;10.10;99.90;;;;;;4942177;29;20035;-92
2021/12/14 13:19:10;;;;;;;2.50;1.92;;;10.20;99.90;;;;;;4944646;29;20031;-92
2021/12/14 13:21:53;;;;;;;3.20;1.90;;;10.20;99.90;;;;;;4940236;29;20054;-93
2021/12/14 13:24:31;;;;;;;2.55;1.48;;;10.20;99.90;;;;;;4941444;28;20086;-93
2021/12/14 13:27:06;;;;;;;3.38;2.60;;;10.20;99.90;;;;;;4943081;29;20058;-93
2021/12/14 13:32:24;;;;;;;4.05;2.30;;;10.30;99.90;;;;;;5336454;23;20389;-92
2021/12/14 13:35:01;;;;;;;3.03;1.80;;;10.30;99.90;;;;;;4901577;29;20036;-94
2021/12/14 13:37:34;;;;;;;2.63;2.20;;;10.30;99.90;;;;;;4901789;29;20092;-94
2021/12/14 13:40:04;;;;;;;4.25;2.78;;;10.30;99.90;;;;;;4901045;29;20032;-93
2021/12/14 13:42:46;;;;;;;3.80;2.40;;;10.30;99.90;;;;;;4901208;29;20396;-93
2021/12/14 13:45:20;;;;;;;3.08;2.00;;;10.30;99.90;;;;;;4901525;29;20036;-92
2021/12/14 13:47:48;;;;;;;3.13;2.22;;;10.30;99.90;;;;;;4901076;29;20028;-93
2021/12/14 13:50:28;;;;;;;2.55;1.88;;;10.30;99.90;;;;;;4901111;29;20080;-92
2021/12/14 13:52:54;;;;;;;4.68;2.08;;;10.30;99.90;;;;;;4901272;29;20115;-94
2021/12/14 13:55:24;;;;;;;4.40;2.63;;;10.30;99.90;;;;;;4900873;29;20028;-91
2021/12/14 13:58:05;;;;;;;4.57;3.45;;;10.30;99.90;;;;;;4900886;29;20121;-93
2021/12/14 14:00:53;;;;;;;7.10;3.47;;;10.30;99.90;;;;;;4896838;29;20037;-92
2021/12/14 14:03:27;;;;;;;5.07;2.53;;;10.30;99.90;;;;;;4907529;29;20032;-92
2021/12/14 14:05:54;;;;;;;2.95;1.85;;;10.30;99.90;;;;;;4900723;29;20032;-91
2021/12/14 14:08:29;;;;;;;4.07;2.55;;;10.30;99.90;;;;;;4900347;29;20388;-92